Time;durP1;ratioP1;P1;durP2;ratioP2;P2;SDS_P1;SDS_P2;PMS_P1;PMS_P2;Temp;Humidity;BMP_temperature;BMP_pressure;BME280_temperature;BME280_humidity;BME280_pressure;Samples;Min_cycle;Max_cycle;Signal;HPM_P1;HPM_P2
2024/03/07 00:00:47;;;;;;;18.73;15.43;;;;;;;;;;4932630;29;20236;-88
2024/03/07 00:03:13;;;;;;;20.53;17.00;;;;;;;;;;4925213;28;20230;-87
2024/03/07 00:05:39;;;;;;;22.47;16.97;;;;;;;;;;4939802;29;20223;-87
2024/03/07 00:08:13;;;;;;;20.73;17.23;;;;;;;;;;4924536;28;20227;-88
2024/03/07 00:10:38;;;;;;;23.70;18.07;;;;;;;;;;4923159;29;20609;-85
2024/03/07 00:13:07;;;;;;;22.63;17.30;;;;;;;;;;4926636;28;20219;-88
2024/03/07 00:15:33;;;;;;;20.17;17.73;;;;;;;;;;4925005;28;21535;-87
2024/03/07 00:18:00;;;;;;;24.10;18.20;;;;;;;;;;4902506;29;20219;-87
2024/03/07 00:20:26;;;;;;;21.77;17.90;;;;;;;;;;4926094;28;20322;-87
2024/03/07 00:22:51;;;;;;;22.67;18.83;;;;;;;;;;4940043;29;20239;-88
2024/03/07 00:25:19;;;;;;;25.93;19.37;;;;;;;;;;4897514;29;20216;-87
2024/03/07 00:27:47;;;;;;;23.60;19.03;;;;;;;;;;4929244;29;20224;-87
2024/03/07 00:30:18;;;;;;;23.97;18.10;;;;;;;;;;4931263;28;20618;-87
2024/03/07 00:32:45;;;;;;;23.50;19.50;;;;;;;;;;4926074;28;20231;-87
2024/03/07 00:35:10;;;;;;;26.20;20.07;;;;;;;;;;4908806;28;20677;-87
2024/03/07 00:37:36;;;;;;;29.93;21.13;;;;;;;;;;4928452;28;20230;-85
2024/03/07 00:40:04;;;;;;;25.80;20.40;;;;;;;;;;4910119;29;20260;-87
2024/03/07 00:42:32;;;;;;;25.90;19.50;;;;;;;;;;4903981;29;20230;-86
2024/03/07 00:44:59;;;;;;;29.70;23.00;;;;;;;;;;4927420;28;20626;-86
2024/03/07 00:47:25;;;;;;;34.00;23.83;;;;;;;;;;4932258;28;20241;-87
2024/03/07 00:49:51;;;;;;;35.20;27.07;;;;;;;;;;4902855;29;20250;-87
2024/03/07 00:52:16;;;;;;;36.43;26.30;;;;;;;;;;4938207;29;20717;-85
2024/03/07 00:54:44;;;;;;;41.77;29.60;;;;;;;;;;4942807;29;20249;-87
2024/03/07 00:57:12;;;;;;;43.53;29.87;;;;;;;;;;4931639;28;20246;-88
2024/03/07 00:59:40;;;;;;;46.87;31.27;;;;;;;;;;4918980;29;20242;-86
2024/03/07 01:02:06;;;;;;;47.40;33.83;;;;;;;;;;4903094;29;20231;-87
2024/03/07 01:04:33;;;;;;;47.47;32.93;;;;;;;;;;4910216;29;20219;-88
2024/03/07 01:07:01;;;;;;;46.67;32.97;;;;;;;;;;4924669;29;20246;-86
2024/03/07 01:09:28;;;;;;;44.50;31.70;;;;;;;;;;4915859;29;20382;-88
2024/03/07 01:12:04;;;;;;;47.73;32.13;;;;;;;;;;4942374;29;20224;-87
2024/03/07 01:14:30;;;;;;;44.70;31.97;;;;;;;;;;4922559;29;20598;-88
2024/03/07 01:16:59;;;;;;;54.00;31.17;;;;;;;;;;4911253;29;20432;-85
2024/03/07 01:19:27;;;;;;;52.43;32.73;;;;;;;;;;4920281;29;20232;-85
2024/03/07 01:21:53;;;;;;;45.93;31.13;;;;;;;;;;4912909;29;20239;-83
2024/03/07 01:24:22;;;;;;;47.63;32.07;;;;;;;;;;4951186;28;20669;-85
2024/03/07 01:26:50;;;;;;;43.47;31.53;;;;;;;;;;4937296;29;20286;-84
2024/03/07 01:29:20;;;;;;;48.63;31.63;;;;;;;;;;4918926;28;20676;-87
2024/03/07 01:31:49;;;;;;;54.27;31.93;;;;;;;;;;4917540;29;20224;-85
2024/03/07 01:34:14;;;;;;;56.87;31.90;;;;;;;;;;4917806;28;20222;-86
2024/03/07 01:36:40;;;;;;;53.33;31.80;;;;;;;;;;4904374;29;20226;-86
2024/03/07 01:39:08;;;;;;;55.50;31.87;;;;;;;;;;4914174;28;20261;-87
2024/03/07 01:41:34;;;;;;;54.87;31.13;;;;;;;;;;4926255;28;20223;-86
2024/03/07 01:44:02;;;;;;;70.67;33.23;;;;;;;;;;4932114;29;20227;-87
2024/03/07 01:46:30;;;;;;;81.47;32.90;;;;;;;;;;4910744;29;20252;-86
2024/03/07 01:48:58;;;;;;;83.33;33.40;;;;;;;;;;4919392;29;20212;-88
2024/03/07 01:51:24;;;;;;;57.53;32.47;;;;;;;;;;4955633;28;20242;-87
2024/03/07 01:53:51;;;;;;;48.83;31.73;;;;;;;;;;4925073;29;20213;-87
2024/03/07 01:56:19;;;;;;;91.70;34.60;;;;;;;;;;4901994;29;20648;-87
2024/03/07 01:58:46;;;;;;;53.70;32.67;;;;;;;;;;4918247;29;20236;-88
2024/03/07 02:01:14;;;;;;;84.63;34.30;;;;;;;;;;4924216;28;20216;-88
2024/03/07 02:03:40;;;;;;;82.63;36.03;;;;;;;;;;4923311;29;20303;-87
2024/03/07 02:06:05;;;;;;;61.33;35.43;;;;;;;;;;4919128;29;20264;-87
2024/03/07 02:08:34;;;;;;;69.53;36.50;;;;;;;;;;4891294;29;20217;-87
2024/03/07 02:11:00;;;;;;;64.43;37.27;;;;;;;;;;4925015;28;20220;-86
2024/03/07 02:13:26;;;;;;;59.17;36.00;;;;;;;;;;4903870;29;20224;-86
2024/03/07 02:15:53;;;;;;;66.67;36.47;;;;;;;;;;4917067;29;20246;-88
2024/03/07 02:18:20;;;;;;;68.07;37.93;;;;;;;;;;4944188;28;20211;-87
2024/03/07 02:20:48;;;;;;;65.27;37.97;;;;;;;;;;4924869;29;20287;-85
2024/03/07 02:23:14;;;;;;;79.87;39.30;;;;;;;;;;4896447;28;20598;-87
2024/03/07 02:25:40;;;;;;;73.30;38.67;;;;;;;;;;4948307;29;20278;-87
2024/03/07 02:28:06;;;;;;;74.67;38.10;;;;;;;;;;4909638;29;20255;-87
2024/03/07 02:30:32;;;;;;;72.03;37.90;;;;;;;;;;4925876;29;20294;-86
2024/03/07 02:33:09;;;;;;;79.93;38.87;;;;;;;;;;4920022;29;20599;-86
2024/03/07 02:35:35;;;;;;;74.00;38.93;;;;;;;;;;4924978;29;20227;-86
2024/03/07 02:38:08;;;;;;;86.50;38.53;;;;;;;;;;4909539;29;20240;-86
2024/03/07 02:40:34;;;;;;;70.97;39.40;;;;;;;;;;4909223;29;20263;-85
2024/03/07 02:43:00;;;;;;;86.43;38.97;;;;;;;;;;4929063;29;20219;-85
2024/03/07 02:45:25;;;;;;;93.80;38.87;;;;;;;;;;4932711;29;20230;-86
2024/03/07 02:47:54;;;;;;;84.73;37.87;;;;;;;;;;4915703;29;20231;-86
2024/03/07 02:50:22;;;;;;;116.77;40.97;;;;;;;;;;4949787;28;20219;-85
2024/03/07 02:52:52;;;;;;;88.17;41.40;;;;;;;;;;4962252;28;20240;-85
2024/03/07 02:55:18;;;;;;;81.33;41.00;;;;;;;;;;4976350;28;20262;-86
2024/03/07 02:57:45;;;;;;;91.83;40.40;;;;;;;;;;4915534;29;20641;-86
2024/03/07 03:00:26;;;;;;;91.03;41.10;;;;;;;;;;4923025;29;20322;-86
2024/03/07 03:02:54;;;;;;;78.57;40.53;;;;;;;;;;4954326;28;20286;-85
2024/03/07 03:05:20;;;;;;;83.47;40.87;;;;;;;;;;4921817;28;20227;-87
2024/03/07 03:07:52;;;;;;;73.77;39.73;;;;;;;;;;4906820;29;20204;-87
2024/03/07 03:10:28;;;;;;;80.50;39.97;;;;;;;;;;4910004;29;20870;-88
2024/03/07 03:13:02;;;;;;;82.73;40.93;;;;;;;;;;4902798;29;20277;-87
2024/03/07 03:15:27;;;;;;;79.50;42.57;;;;;;;;;;4929071;28;20223;-87
2024/03/07 03:17:53;;;;;;;83.77;41.83;;;;;;;;;;4922292;29;20212;-86
2024/03/07 03:20:24;;;;;;;87.70;43.27;;;;;;;;;;4939755;29;20223;-87
2024/03/07 03:22:52;;;;;;;86.73;42.97;;;;;;;;;;4931180;29;20233;-87
2024/03/07 03:25:20;;;;;;;73.70;41.40;;;;;;;;;;4943784;28;20246;-85
2024/03/07 03:27:48;;;;;;;84.90;43.63;;;;;;;;;;4938829;29;20223;-86
2024/03/07 03:30:14;;;;;;;87.97;43.50;;;;;;;;;;4895590;29;20224;-87
2024/03/07 03:32:40;;;;;;;86.07;43.87;;;;;;;;;;4922968;28;20263;-85
2024/03/07 03:35:13;;;;;;;93.93;43.10;;;;;;;;;;4905226;29;20229;-86
2024/03/07 03:37:40;;;;;;;80.43;42.70;;;;;;;;;;4930905;29;20228;-87
2024/03/07 03:40:09;;;;;;;85.73;43.73;;;;;;;;;;4903678;29;20258;-86
2024/03/07 03:42:38;;;;;;;81.67;42.43;;;;;;;;;;4911358;29;20287;-85
2024/03/07 03:45:06;;;;;;;83.80;44.53;;;;;;;;;;4936641;28;20223;-84
2024/03/07 03:47:35;;;;;;;104.27;45.70;;;;;;;;;;4928818;29;20220;-86
2024/03/07 03:50:03;;;;;;;83.40;43.77;;;;;;;;;;4921459;29;20232;-86
2024/03/07 03:52:29;;;;;;;87.60;44.63;;;;;;;;;;4923510;29;20254;-84
2024/03/07 03:54:54;;;;;;;82.10;43.63;;;;;;;;;;4924958;29;20236;-85
2024/03/07 03:57:20;;;;;;;83.13;44.17;;;;;;;;;;4907039;29;20247;-86
2024/03/07 04:03:32;;;;;;;87.30;42.80;;;;;;;;;;4940402;28;20615;-86
2024/03/07 04:05:58;;;;;;;107.47;44.47;;;;;;;;;;4924328;29;20224;-87
2024/03/07 04:08:29;;;;;;;99.80;44.43;;;;;;;;;;4936283;28;20245;-85
2024/03/07 04:10:55;;;;;;;89.97;43.90;;;;;;;;;;4936207;29;20228;-87
2024/03/07 04:13:22;;;;;;;106.20;45.30;;;;;;;;;;4900239;29;20605;-88
2024/03/07 04:15:47;;;;;;;92.97;45.33;;;;;;;;;;4919841;29;20282;-87
2024/03/07 04:18:13;;;;;;;90.00;44.20;;;;;;;;;;4925468;28;20231;-87
2024/03/07 04:20:39;;;;;;;104.07;45.23;;;;;;;;;;4924566;29;20286;-87
2024/03/07 04:23:09;;;;;;;100.93;46.40;;;;;;;;;;4926189;29;20322;-87
2024/03/07 04:25:35;;;;;;;100.13;45.70;;;;;;;;;;4940458;29;20324;-87
2024/03/07 04:28:03;;;;;;;112.03;46.03;;;;;;;;;;4924882;29;20756;-87
2024/03/07 04:30:31;;;;;;;100.83;45.53;;;;;;;;;;4945810;29;20239;-87
2024/03/07 04:33:01;;;;;;;96.30;45.57;;;;;;;;;;4904615;29;20246;-87
2024/03/07 04:35:27;;;;;;;105.70;45.53;;;;;;;;;;4942797;28;20295;-88
2024/03/07 04:37:54;;;;;;;98.30;44.43;;;;;;;;;;4923525;29;20215;-86
2024/03/07 04:40:21;;;;;;;100.10;43.67;;;;;;;;;;4922793;29;20235;-86
2024/03/07 04:42:51;;;;;;;96.60;44.90;;;;;;;;;;4959795;29;20286;-85
2024/03/07 04:45:19;;;;;;;104.60;46.20;;;;;;;;;;4943081;29;20223;-86
2024/03/07 04:47:47;;;;;;;101.40;44.53;;;;;;;;;;4930624;29;20231;-86
2024/03/07 04:50:17;;;;;;;116.97;45.57;;;;;;;;;;4904940;29;20256;-87
2024/03/07 04:52:46;;;;;;;109.13;46.13;;;;;;;;;;4929884;28;20279;-79
2024/03/07 04:55:12;;;;;;;102.27;45.77;;;;;;;;;;4934413;28;20230;-78
2024/03/07 04:57:41;;;;;;;110.57;46.83;;;;;;;;;;4937332;28;20249;-78
2024/03/07 05:00:07;;;;;;;91.53;44.27;;;;;;;;;;4910151;28;20325;-77
2024/03/07 05:02:33;;;;;;;105.17;45.07;;;;;;;;;;4926231;29;20319;-78
2024/03/07 05:04:59;;;;;;;105.87;46.47;;;;;;;;;;4903735;29;20231;-78
2024/03/07 05:07:27;;;;;;;97.13;44.63;;;;;;;;;;4914835;28;20250;-79
2024/03/07 05:09:55;;;;;;;107.97;45.67;;;;;;;;;;4921489;28;20224;-79
2024/03/07 05:12:20;;;;;;;91.43;43.83;;;;;;;;;;4918111;28;20258;-79
2024/03/07 05:14:46;;;;;;;92.37;43.80;;;;;;;;;;4916825;29;20232;-79
2024/03/07 05:17:12;;;;;;;85.87;41.97;;;;;;;;;;4919734;28;20270;-78
2024/03/07 05:19:37;;;;;;;94.60;42.97;;;;;;;;;;4948561;28;20239;-77
2024/03/07 05:22:06;;;;;;;87.00;40.20;;;;;;;;;;4935732;28;20216;-77
2024/03/07 05:24:34;;;;;;;83.23;40.77;;;;;;;;;;4906598;29;20286;-78
2024/03/07 05:27:00;;;;;;;78.10;39.13;;;;;;;;;;4923007;28;20224;-78
2024/03/07 05:29:27;;;;;;;75.90;38.30;;;;;;;;;;4950312;28;20235;-78
2024/03/07 05:31:55;;;;;;;78.23;38.87;;;;;;;;;;4904297;29;21006;-77
2024/03/07 05:34:23;;;;;;;69.63;38.43;;;;;;;;;;4936154;28;20246;-80
2024/03/07 05:36:48;;;;;;;80.23;39.30;;;;;;;;;;4916855;29;20840;-78
2024/03/07 05:39:16;;;;;;;77.87;38.97;;;;;;;;;;4916576;28;20235;-80
2024/03/07 05:41:42;;;;;;;80.37;39.40;;;;;;;;;;4925842;28;20231;-79
2024/03/07 05:44:10;;;;;;;72.13;36.83;;;;;;;;;;4920357;29;20220;-79
2024/03/07 05:46:46;;;;;;;74.77;37.07;;;;;;;;;;4916086;29;20257;-77
2024/03/07 05:49:15;;;;;;;69.90;36.70;;;;;;;;;;4918661;28;20218;-79
2024/03/07 05:51:42;;;;;;;67.97;36.23;;;;;;;;;;4924063;29;20693;-79
2024/03/07 05:54:07;;;;;;;72.17;36.30;;;;;;;;;;4908587;28;20231;-80
2024/03/07 05:56:36;;;;;;;64.27;34.87;;;;;;;;;;4919514;29;20230;-78
2024/03/07 05:59:07;;;;;;;63.97;34.87;;;;;;;;;;4919143;29;20312;-78
2024/03/07 06:01:36;;;;;;;57.87;34.33;;;;;;;;;;4908370;29;20252;-79
2024/03/07 06:04:02;;;;;;;60.60;33.47;;;;;;;;;;4924824;29;20207;-79
2024/03/07 06:06:31;;;;;;;63.20;33.50;;;;;;;;;;4929718;28;20243;-80
2024/03/07 06:08:58;;;;;;;56.30;32.67;;;;;;;;;;4943401;28;20223;-80
2024/03/07 06:11:23;;;;;;;51.90;30.63;;;;;;;;;;4924546;28;20224;-79
2024/03/07 06:13:49;;;;;;;50.10;30.53;;;;;;;;;;4919393;29;20250;-80
2024/03/07 06:16:15;;;;;;;49.80;31.47;;;;;;;;;;4931003;28;20223;-79
2024/03/07 06:18:41;;;;;;;50.77;30.53;;;;;;;;;;4923038;29;20228;-79
2024/03/07 06:21:08;;;;;;;49.43;29.30;;;;;;;;;;4911784;28;20269;-79
2024/03/07 06:23:33;;;;;;;45.40;28.60;;;;;;;;;;4951711;28;20250;-79
2024/03/07 06:26:06;;;;;;;44.13;28.87;;;;;;;;;;4927255;28;20705;-79
2024/03/07 06:28:32;;;;;;;47.03;29.13;;;;;;;;;;4934373;29;20238;-78
2024/03/07 06:30:57;;;;;;;44.83;27.90;;;;;;;;;;4935830;29;20231;-79
2024/03/07 06:33:26;;;;;;;41.40;27.10;;;;;;;;;;4921450;28;20231;-80
2024/03/07 06:35:55;;;;;;;42.00;26.57;;;;;;;;;;4911320;29;20232;-78
2024/03/07 06:38:21;;;;;;;40.63;26.70;;;;;;;;;;4932263;28;20313;-78
2024/03/07 06:40:46;;;;;;;39.43;26.23;;;;;;;;;;4905651;29;20231;-79
2024/03/07 06:43:12;;;;;;;41.17;25.60;;;;;;;;;;4897178;28;20220;-79
2024/03/07 06:45:38;;;;;;;40.07;26.13;;;;;;;;;;4917049;29;20679;-79
2024/03/07 06:48:09;;;;;;;36.43;25.00;;;;;;;;;;4920195;28;20227;-78
2024/03/07 06:50:38;;;;;;;34.17;24.00;;;;;;;;;;4938215;28;20235;-79
2024/03/07 06:53:06;;;;;;;34.90;23.03;;;;;;;;;;4941241;28;20699;-78
2024/03/07 06:55:33;;;;;;;38.80;24.73;;;;;;;;;;4923624;28;20228;-77
2024/03/07 06:58:04;;;;;;;35.03;23.27;;;;;;;;;;4922255;29;20315;-79
2024/03/07 07:00:31;;;;;;;35.93;23.47;;;;;;;;;;4901407;29;20578;-79
2024/03/07 07:03:03;;;;;;;30.57;23.77;;;;;;;;;;4932657;29;20224;-80
2024/03/07 07:05:29;;;;;;;34.77;23.03;;;;;;;;;;4899610;29;20228;-79
2024/03/07 07:07:55;;;;;;;33.33;23.93;;;;;;;;;;4931172;29;20224;-79
2024/03/07 07:10:23;;;;;;;31.20;22.77;;;;;;;;;;4903247;28;20246;-79
2024/03/07 07:12:51;;;;;;;30.40;22.10;;;;;;;;;;4952597;29;20231;-80
2024/03/07 07:15:18;;;;;;;31.70;21.67;;;;;;;;;;4933174;28;20236;-79
2024/03/07 07:17:48;;;;;;;29.80;21.90;;;;;;;;;;4917775;29;20756;-79
2024/03/07 07:20:14;;;;;;;34.23;22.00;;;;;;;;;;4941671;28;20236;-79
2024/03/07 07:22:41;;;;;;;29.00;20.67;;;;;;;;;;4896170;29;20568;-78
2024/03/07 07:25:13;;;;;;;28.70;21.27;;;;;;;;;;4916293;28;20224;-80
2024/03/07 07:27:44;;;;;;;34.13;21.57;;;;;;;;;;4928560;28;20583;-79
2024/03/07 07:30:13;;;;;;;29.87;21.37;;;;;;;;;;4921371;28;20243;-79
2024/03/07 07:32:39;;;;;;;31.60;21.20;;;;;;;;;;4936292;29;20233;-80
2024/03/07 07:35:11;;;;;;;30.73;21.93;;;;;;;;;;4925106;28;20228;-80
2024/03/07 07:37:40;;;;;;;29.90;21.20;;;;;;;;;;4932952;29;20251;-79
2024/03/07 07:40:09;;;;;;;33.03;21.97;;;;;;;;;;4929028;29;20287;-79
2024/03/07 07:42:38;;;;;;;32.00;21.60;;;;;;;;;;4936661;29;20263;-79
2024/03/07 07:45:10;;;;;;;29.47;21.00;;;;;;;;;;4942887;28;20239;-80
2024/03/07 07:47:42;;;;;;;29.00;21.37;;;;;;;;;;4912106;29;20303;-79
2024/03/07 07:50:17;;;;;;;28.00;20.20;;;;;;;;;;4923615;28;20228;-80
2024/03/07 07:52:50;;;;;;;31.57;21.50;;;;;;;;;;4919553;29;20641;-79
2024/03/07 07:55:17;;;;;;;27.67;20.83;;;;;;;;;;4916497;28;20234;-79
2024/03/07 07:57:52;;;;;;;25.87;20.27;;;;;;;;;;4942895;28;20224;-79
2024/03/07 08:00:28;;;;;;;28.20;19.90;;;;;;;;;;4953282;28;20238;-79
2024/03/07 08:03:06;;;;;;;28.57;19.43;;;;;;;;;;4933186;29;20332;-79
2024/03/07 08:05:32;;;;;;;25.73;19.77;;;;;;;;;;4922516;29;20248;-80
2024/03/07 08:08:04;;;;;;;27.13;19.63;;;;;;;;;;4921744;29;20231;-79
2024/03/07 08:10:30;;;;;;;27.03;19.50;;;;;;;;;;4931819;28;20227;-79
2024/03/07 08:12:59;;;;;;;29.63;20.40;;;;;;;;;;4950586;28;20231;-80
2024/03/07 08:15:26;;;;;;;28.37;20.03;;;;;;;;;;4958059;28;20298;-79
2024/03/07 08:17:51;;;;;;;29.03;20.67;;;;;;;;;;4935105;28;20284;-78
2024/03/07 08:20:18;;;;;;;27.43;20.23;;;;;;;;;;4922501;28;20935;-79
2024/03/07 08:22:44;;;;;;;28.97;23.40;;;;;;;;;;4906072;29;20243;-79
2024/03/07 08:25:13;;;;;;;28.97;21.57;;;;;;;;;;4934224;28;20282;-79
2024/03/07 08:27:42;;;;;;;28.50;22.40;;;;;;;;;;4932589;29;20233;-78
2024/03/07 08:30:14;;;;;;;26.97;20.73;;;;;;;;;;4938721;29;20232;-79
2024/03/07 08:32:41;;;;;;;29.27;21.47;;;;;;;;;;4941890;29;20764;-79
2024/03/07 08:35:09;;;;;;;29.70;21.53;;;;;;;;;;4952907;29;20609;-78
2024/03/07 08:37:35;;;;;;;34.43;22.33;;;;;;;;;;4937784;29;20278;-77
2024/03/07 08:40:04;;;;;;;31.03;21.90;;;;;;;;;;4927045;29;20298;-78
2024/03/07 08:42:32;;;;;;;29.80;20.83;;;;;;;;;;4933675;28;20220;-79
2024/03/07 08:44:58;;;;;;;30.97;22.87;;;;;;;;;;4929887;29;20954;-79
2024/03/07 08:47:28;;;;;;;34.80;22.43;;;;;;;;;;4929274;28;20251;-78
2024/03/07 08:49:56;;;;;;;35.00;22.73;;;;;;;;;;4923004;29;20236;-78
2024/03/07 08:52:22;;;;;;;32.50;22.33;;;;;;;;;;4890836;28;20212;-78
2024/03/07 08:54:48;;;;;;;33.27;21.60;;;;;;;;;;4926033;29;20239;-80
2024/03/07 08:57:16;;;;;;;31.43;22.30;;;;;;;;;;4898597;29;20312;-79
2024/03/07 08:59:43;;;;;;;28.73;20.17;;;;;;;;;;4941903;28;20231;-80
2024/03/07 09:02:14;;;;;;;31.90;21.47;;;;;;;;;;4938549;28;20236;-80
2024/03/07 09:04:42;;;;;;;29.83;20.97;;;;;;;;;;4927670;28;20229;-79
2024/03/07 09:07:08;;;;;;;31.77;21.20;;;;;;;;;;4927785;28;20224;-79
2024/03/07 09:09:36;;;;;;;32.30;21.60;;;;;;;;;;4919608;29;20289;-80
2024/03/07 09:12:01;;;;;;;29.87;21.03;;;;;;;;;;4907958;29;20232;-78
2024/03/07 09:14:30;;;;;;;29.00;20.17;;;;;;;;;;4920045;29;20235;-80
2024/03/07 09:16:55;;;;;;;28.67;20.60;;;;;;;;;;4922917;28;20235;-79
2024/03/07 09:19:27;;;;;;;30.37;20.53;;;;;;;;;;4909399;28;20234;-79
2024/03/07 09:21:53;;;;;;;32.40;21.93;;;;;;;;;;4954544;28;20235;-79
2024/03/07 09:24:21;;;;;;;29.87;20.73;;;;;;;;;;4925678;28;20216;-78
2024/03/07 09:26:48;;;;;;;30.30;20.70;;;;;;;;;;4914726;29;20767;-80
2024/03/07 09:29:17;;;;;;;29.97;20.93;;;;;;;;;;4953018;28;20234;-79
2024/03/07 09:31:46;;;;;;;29.40;21.10;;;;;;;;;;4924778;29;20315;-79
2024/03/07 09:34:15;;;;;;;27.70;20.37;;;;;;;;;;4960658;28;20246;-80
2024/03/07 09:36:41;;;;;;;31.17;21.40;;;;;;;;;;4950733;28;20223;-79
2024/03/07 09:39:12;;;;;;;28.13;20.30;;;;;;;;;;4954722;28;20245;-78
2024/03/07 09:41:42;;;;;;;28.53;19.73;;;;;;;;;;4902803;29;20311;-79
2024/03/07 09:44:13;;;;;;;31.27;20.33;;;;;;;;;;4923554;28;20239;-79
2024/03/07 09:46:41;;;;;;;27.77;19.63;;;;;;;;;;4902091;29;20291;-79
2024/03/07 09:49:10;;;;;;;29.20;19.90;;;;;;;;;;4916658;28;20653;-79
2024/03/07 09:51:36;;;;;;;27.33;19.00;;;;;;;;;;4906743;29;20232;-79
2024/03/07 09:54:01;;;;;;;27.37;19.03;;;;;;;;;;4925052;29;20224;-80
2024/03/07 09:56:28;;;;;;;30.50;19.23;;;;;;;;;;4918045;28;20381;-78
2024/03/07 09:58:57;;;;;;;25.67;19.13;;;;;;;;;;4903300;29;20240;-78
2024/03/07 10:01:24;;;;;;;28.93;18.70;;;;;;;;;;4915538;29;20615;-78
2024/03/07 10:03:50;;;;;;;28.17;18.53;;;;;;;;;;4918862;29;20727;-79
2024/03/07 10:06:16;;;;;;;26.30;18.50;;;;;;;;;;4920718;28;20289;-79
2024/03/07 10:08:42;;;;;;;25.83;18.53;;;;;;;;;;4917033;29;20279;-79
2024/03/07 10:11:09;;;;;;;27.37;19.13;;;;;;;;;;4922984;28;20328;-78
2024/03/07 10:13:35;;;;;;;25.30;18.10;;;;;;;;;;4901873;29;20255;-77
2024/03/07 10:16:04;;;;;;;25.40;18.27;;;;;;;;;;4941808;28;20227;-78
2024/03/07 10:18:34;;;;;;;26.53;19.10;;;;;;;;;;4935303;28;20269;-79
2024/03/07 10:21:04;;;;;;;27.27;18.73;;;;;;;;;;4926113;29;20243;-79
2024/03/07 10:23:29;;;;;;;26.83;18.13;;;;;;;;;;4932403;29;20227;-79
2024/03/07 10:25:55;;;;;;;26.90;19.20;;;;;;;;;;4942647;29;20715;-78
2024/03/07 10:28:20;;;;;;;28.13;17.87;;;;;;;;;;4937817;28;20230;-80
2024/03/07 10:30:47;;;;;;;26.53;18.23;;;;;;;;;;4914195;29;20238;-78
2024/03/07 10:33:13;;;;;;;27.57;18.17;;;;;;;;;;4926551;28;20302;-81
2024/03/07 10:35:38;;;;;;;28.13;18.30;;;;;;;;;;4919164;29;20356;-79
2024/03/07 10:38:06;;;;;;;25.07;17.90;;;;;;;;;;4894422;29;20224;-80
2024/03/07 10:40:32;;;;;;;27.83;18.70;;;;;;;;;;4934653;28;20233;-80
2024/03/07 10:43:02;;;;;;;28.33;17.97;;;;;;;;;;4910580;28;20228;-79
2024/03/07 10:45:31;;;;;;;29.10;19.97;;;;;;;;;;4921817;28;20225;-78
2024/03/07 10:47:57;;;;;;;31.10;18.37;;;;;;;;;;4909640;29;20230;-80
2024/03/07 10:50:47;;;;;;;28.47;18.37;;;;;;;;;;4910699;28;26064;-81
2024/03/07 10:53:42;;;;;;;26.10;18.03;;;;;;;;;;4923871;28;20212;-80
2024/03/07 10:56:14;;;;;;;27.83;18.00;;;;;;;;;;4914935;29;20307;-81
2024/03/07 10:58:55;;;;;;;24.43;16.83;;;;;;;;;;4954546;28;20227;-80
2024/03/07 11:01:21;;;;;;;24.60;17.27;;;;;;;;;;4940280;28;20654;-80
2024/03/07 11:03:46;;;;;;;25.60;18.13;;;;;;;;;;4912788;29;20232;-80
2024/03/07 11:06:14;;;;;;;23.77;15.87;;;;;;;;;;4910109;28;20274;-80
2024/03/07 11:08:39;;;;;;;24.13;16.73;;;;;;;;;;4909246;29;20235;-80
2024/03/07 11:11:06;;;;;;;25.73;18.03;;;;;;;;;;4926337;28;20239;-80
2024/03/07 11:13:31;;;;;;;24.90;17.60;;;;;;;;;;4901764;29;20216;-80
2024/03/07 11:15:59;;;;;;;23.17;16.63;;;;;;;;;;4937332;28;20238;-78
2024/03/07 11:18:26;;;;;;;27.43;16.77;;;;;;;;;;4925451;29;20247;-80
2024/03/07 11:20:51;;;;;;;25.87;17.53;;;;;;;;;;4919871;29;20234;-80
2024/03/07 11:23:41;;;;;;;24.53;17.23;;;;;;;;;;4922971;29;20228;-79
2024/03/07 11:26:07;;;;;;;24.97;17.80;;;;;;;;;;4927555;28;20222;-80
2024/03/07 11:28:37;;;;;;;32.27;22.33;;;;;;;;;;4921186;28;20228;-81
2024/03/07 11:31:24;;;;;;;25.07;16.83;;;;;;;;;;4906568;29;20229;-80
2024/03/07 11:34:14;;;;;;;24.53;16.87;;;;;;;;;;4930532;28;20638;-79
2024/03/07 11:36:44;;;;;;;24.47;18.00;;;;;;;;;;4954727;28;20228;-78
2024/03/07 11:39:46;;;;;;;24.00;17.47;;;;;;;;;;4921515;29;20239;-79
2024/03/07 11:42:28;;;;;;;22.87;16.87;;;;;;;;;;4939387;28;20230;-79
2024/03/07 11:44:59;;;;;;;23.80;17.77;;;;;;;;;;4914119;29;20748;-79
2024/03/07 11:47:28;;;;;;;28.00;17.37;;;;;;;;;;4930957;29;20258;-80
2024/03/07 11:49:54;;;;;;;27.23;17.93;;;;;;;;;;4939260;28;20281;-78
2024/03/07 11:52:20;;;;;;;25.37;18.20;;;;;;;;;;4920593;28;20254;-78
2024/03/07 11:54:46;;;;;;;25.73;17.90;;;;;;;;;;4936817;29;21290;-78
2024/03/07 11:57:26;;;;;;;26.67;18.27;;;;;;;;;;4945189;28;20371;-78
2024/03/07 11:59:52;;;;;;;26.40;17.17;;;;;;;;;;4943882;28;20669;-78
2024/03/07 12:02:21;;;;;;;26.07;17.27;;;;;;;;;;4912748;29;20220;-78
2024/03/07 12:04:47;;;;;;;27.60;17.83;;;;;;;;;;4936848;28;20227;-78
2024/03/07 12:07:17;;;;;;;23.67;17.10;;;;;;;;;;4961144;28;20645;-80
2024/03/07 12:09:45;;;;;;;25.03;17.80;;;;;;;;;;4920154;29;20596;-78
2024/03/07 12:12:17;;;;;;;26.23;18.70;;;;;;;;;;4919609;29;20688;-79
2024/03/07 12:14:45;;;;;;;25.00;16.83;;;;;;;;;;4917774;29;20237;-78
2024/03/07 12:17:11;;;;;;;27.87;17.67;;;;;;;;;;4927586;28;20215;-78
2024/03/07 12:19:38;;;;;;;24.87;17.37;;;;;;;;;;4921307;28;20219;-79
2024/03/07 12:22:12;;;;;;;24.20;16.30;;;;;;;;;;4934423;28;20231;-77
2024/03/07 12:24:41;;;;;;;28.97;17.47;;;;;;;;;;4916959;29;20314;-79
2024/03/07 12:27:10;;;;;;;25.43;17.63;;;;;;;;;;4945912;28;20243;-78
2024/03/07 12:29:39;;;;;;;26.87;17.10;;;;;;;;;;4936721;29;20351;-78
2024/03/07 12:32:07;;;;;;;25.87;16.97;;;;;;;;;;4946440;28;20283;-79
2024/03/07 12:34:37;;;;;;;24.10;17.07;;;;;;;;;;4963349;28;20246;-78
2024/03/07 12:37:04;;;;;;;26.37;17.63;;;;;;;;;;4925255;28;20284;-79
2024/03/07 12:39:46;;;;;;;24.83;17.20;;;;;;;;;;4934059;29;20714;-80
2024/03/07 12:42:22;;;;;;;45.50;27.47;;;;;;;;;;4919508;28;20222;-80
2024/03/07 12:44:47;;;;;;;27.70;20.10;;;;;;;;;;4937186;28;20231;-79
2024/03/07 12:47:18;;;;;;;23.10;17.00;;;;;;;;;;4925169;28;20692;-78
2024/03/07 12:49:44;;;;;;;25.43;17.53;;;;;;;;;;4937251;29;20242;-79
2024/03/07 12:52:10;;;;;;;22.70;17.20;;;;;;;;;;4914200;28;20227;-78
2024/03/07 12:54:41;;;;;;;25.20;17.40;;;;;;;;;;4943390;28;20239;-79
2024/03/07 12:57:14;;;;;;;24.43;17.37;;;;;;;;;;4918398;28;20239;-79
2024/03/07 12:59:42;;;;;;;22.53;16.90;;;;;;;;;;4936460;29;20230;-79
2024/03/07 13:02:08;;;;;;;22.97;17.17;;;;;;;;;;4913432;28;20243;-79
2024/03/07 13:04:34;;;;;;;22.27;17.07;;;;;;;;;;4929143;28;20286;-78
2024/03/07 13:07:03;;;;;;;22.63;16.87;;;;;;;;;;4912217;29;20215;-79
2024/03/07 13:09:35;;;;;;;25.30;18.10;;;;;;;;;;4939514;29;20227;-78
2024/03/07 13:12:00;;;;;;;22.27;17.53;;;;;;;;;;4954457;29;20236;-79
2024/03/07 13:14:32;;;;;;;25.90;18.20;;;;;;;;;;4950261;28;20222;-79
2024/03/07 13:17:06;;;;;;;24.40;18.57;;;;;;;;;;4942888;29;20231;-78
2024/03/07 13:19:32;;;;;;;21.37;17.53;;;;;;;;;;4919111;28;20246;-78
2024/03/07 13:22:01;;;;;;;25.17;18.03;;;;;;;;;;4939602;29;20223;-78
2024/03/07 13:24:27;;;;;;;23.07;16.90;;;;;;;;;;4936485;28;20230;-79
2024/03/07 13:26:53;;;;;;;28.10;17.17;;;;;;;;;;4919930;29;20220;-79
2024/03/07 13:29:24;;;;;;;20.97;16.47;;;;;;;;;;4918390;28;20811;-79
2024/03/07 13:31:49;;;;;;;25.07;17.87;;;;;;;;;;4905805;29;20238;-78
2024/03/07 13:34:15;;;;;;;22.20;17.13;;;;;;;;;;4898090;29;20695;-78
2024/03/07 13:36:41;;;;;;;21.80;16.97;;;;;;;;;;4924801;28;20235;-77
2024/03/07 13:39:11;;;;;;;22.67;17.03;;;;;;;;;;4953439;28;20241;-79
2024/03/07 13:41:37;;;;;;;23.03;16.83;;;;;;;;;;4952591;28;20326;-78
2024/03/07 13:44:03;;;;;;;20.83;15.50;;;;;;;;;;4923776;28;20231;-79
2024/03/07 13:46:29;;;;;;;21.10;15.40;;;;;;;;;;4954059;28;20238;-79
2024/03/07 13:49:00;;;;;;;18.97;15.77;;;;;;;;;;4912045;29;20609;-80
2024/03/07 13:51:28;;;;;;;21.10;16.53;;;;;;;;;;4906881;29;20220;-79
2024/03/07 13:54:08;;;;;;;19.00;14.83;;;;;;;;;;4934548;28;20312;-78
2024/03/07 13:56:56;;;;;;;20.83;15.03;;;;;;;;;;4911944;28;20227;-78
2024/03/07 13:59:59;;;;;;;19.73;14.83;;;;;;;;;;4937589;28;20310;-78
2024/03/07 14:02:45;;;;;;;19.43;14.60;;;;;;;;;;4934077;28;20223;-77
2024/03/07 14:05:12;;;;;;;19.83;15.27;;;;;;;;;;4944216;28;20695;-78
2024/03/07 14:08:00;;;;;;;19.40;14.57;;;;;;;;;;4936027;29;20969;-85
2024/03/07 14:10:57;;;;;;;17.40;14.17;;;;;;;;;;4940324;29;20234;-87
2024/03/07 14:13:40;;;;;;;17.00;14.37;;;;;;;;;;4920340;29;20224;-85
2024/03/07 14:16:45;;;;;;;15.80;14.03;;;;;;;;;;4926300;28;20251;-86
2024/03/07 14:19:36;;;;;;;18.37;14.13;;;;;;;;;;4931233;28;20317;-86
2024/03/07 14:22:32;;;;;;;18.33;13.97;;;;;;;;;;4954435;28;20226;-86
2024/03/07 14:24:57;;;;;;;18.13;13.80;;;;;;;;;;4943048;28;20236;-87
2024/03/07 14:27:39;;;;;;;16.03;13.10;;;;;;;;;;4930077;28;20771;-87
2024/03/07 14:30:51;;;;;;;16.10;13.63;;;;;;;;;;4923666;28;20692;-86